sensor_id;sensor_type;location;lat;lon;timestamp;pressure;altitude;pressure_sealevel;temperature;humidity
48517;BME280;34310;51.904;4.256;2023-04-27T00:02:13;102215.03;;;15.77;59.69
48517;BME280;34310;51.904;4.256;2023-04-27T00:04:41;102214.91;;;15.75;59.86
48517;BME280;34310;51.904;4.256;2023-04-27T00:07:09;102219.13;;;15.73;59.87
48517;BME280;34310;51.904;4.256;2023-04-27T00:09:36;102221.72;;;15.73;59.70
48517;BME280;34310;51.904;4.256;2023-04-27T00:12:04;102219.00;;;15.72;59.87
48517;BME280;34310;51.904;4.256;2023-04-27T00:14:32;102214.59;;;15.71;59.91
48517;BME280;34310;51.904;4.256;2023-04-27T00:16:59;102218.09;;;15.71;59.81
48517;BME280;34310;51.904;4.256;2023-04-27T00:19:27;102224.00;;;15.69;59.89
48517;BME280;34310;51.904;4.256;2023-04-27T00:21:54;102220.50;;;15.68;59.82
48517;BME280;34310;51.904;4.256;2023-04-27T00:24:23;102216.97;;;15.68;59.87
48517;BME280;34310;51.904;4.256;2023-04-27T00:26:51;102215.16;;;15.67;59.76
48517;BME280;34310;51.904;4.256;2023-04-27T00:29:18;102213.38;;;15.66;59.96
48517;BME280;34310;51.904;4.256;2023-04-27T00:31:45;102218.56;;;15.66;59.80
48517;BME280;34310;51.904;4.256;2023-04-27T00:34:13;102215.84;;;15.64;59.90
48517;BME280;34310;51.904;4.256;2023-04-27T00:36:40;102213.16;;;15.63;59.91
48517;BME280;34310;51.904;4.256;2023-04-27T00:39:07;102210.53;;;15.63;59.99
48517;BME280;34310;51.904;4.256;2023-04-27T00:41:38;102213.03;;;15.61;59.84
48517;BME280;34310;51.904;4.256;2023-04-27T00:44:05;102206.13;;;15.62;59.97
48517;BME280;34310;51.904;4.256;2023-04-27T00:46:33;102208.59;;;15.60;59.84
48517;BME280;34310;51.904;4.256;2023-04-27T00:49:01;102204.97;;;15.58;60.07
48517;BME280;34310;51.904;4.256;2023-04-27T00:51:29;102207.56;;;15.58;60.08
48517;BME280;34310;51.904;4.256;2023-04-27T00:53:57;102202.22;;;15.57;59.93
48517;BME280;34310;51.904;4.256;2023-04-27T00:56:26;102202.22;;;15.57;60.02
48517;BME280;34310;51.904;4.256;2023-04-27T00:58:53;102208.22;;;15.56;59.94
48517;BME280;34310;51.904;4.256;2023-04-27T01:01:20;102205.50;;;15.54;59.98
48517;BME280;34310;51.904;4.256;2023-04-27T01:03:48;102202.91;;;15.54;60.19
48517;BME280;34310;51.904;4.256;2023-04-27T01:06:15;102195.00;;;15.53;60.10
48517;BME280;34310;51.904;4.256;2023-04-27T01:08:42;102187.19;;;15.53;60.04
48517;BME280;34310;51.904;4.256;2023-04-27T01:11:10;102185.38;;;15.52;60.08
48517;BME280;34310;51.904;4.256;2023-04-27T01:13:37;102186.16;;;15.50;60.00
48517;BME280;34310;51.904;4.256;2023-04-27T01:16:05;102185.28;;;15.50;60.00
48517;BME280;34310;51.904;4.256;2023-04-27T01:18:32;102178.25;;;15.49;60.02
48517;BME280;34310;51.904;4.256;2023-04-27T01:20:59;102178.16;;;15.47;59.93
48517;BME280;34310;51.904;4.256;2023-04-27T01:23:27;102178.16;;;15.47;60.11
48517;BME280;34310;51.904;4.256;2023-04-27T01:25:54;102173.72;;;15.46;60.10
48517;BME280;34310;51.904;4.256;2023-04-27T01:28:22;102171.94;;;15.45;59.99
48517;BME280;34310;51.904;4.256;2023-04-27T01:30:49;102177.13;;;15.45;60.15
48517;BME280;34310;51.904;4.256;2023-04-27T01:33:16;102170.00;;;15.43;60.06
48517;BME280;34310;51.904;4.256;2023-04-27T01:35:44;102170.13;;;15.44;60.22
48517;BME280;34310;51.904;4.256;2023-04-27T01:38:11;102165.72;;;15.43;60.16
48517;BME280;34310;51.904;4.256;2023-04-27T01:40:39;102163.00;;;15.42;60.10
48517;BME280;34310;51.904;4.256;2023-04-27T01:43:06;102157.69;;;15.40;60.25
48517;BME280;34310;51.904;4.256;2023-04-27T01:45:34;102155.88;;;15.39;60.12
48517;BME280;34310;51.904;4.256;2023-04-27T01:48:02;102155.88;;;15.39;60.18
48517;BME280;34310;51.904;4.256;2023-04-27T01:50:29;102161.88;;;15.38;60.21
48517;BME280;34310;51.904;4.256;2023-04-27T01:52:56;102156.56;;;15.37;60.24
48517;BME280;34310;51.904;4.256;2023-04-27T01:55:24;102153.84;;;15.35;60.15
48517;BME280;34310;51.904;4.256;2023-04-27T01:57:51;102160.88;;;15.36;60.06
48517;BME280;34310;51.904;4.256;2023-04-27T02:00:18;102155.56;;;15.35;60.17
48517;BME280;34310;51.904;4.256;2023-04-27T02:02:46;102153.75;;;15.34;59.99
48517;BME280;34310;51.904;4.256;2023-04-27T02:05:14;102142.44;;;15.33;60.11
48517;BME280;34310;51.904;4.256;2023-04-27T02:07:41;102139.81;;;15.33;60.19
48517;BME280;34310;51.904;4.256;2023-04-27T02:10:09;102140.59;;;15.32;60.18
48517;BME280;34310;51.904;4.256;2023-04-27T02:12:37;102145.69;;;15.31;60.30
48517;BME280;34310;51.904;4.256;2023-04-27T02:15:05;102142.97;;;15.29;60.35
48517;BME280;34310;51.904;4.256;2023-04-27T02:17:34;102145.56;;;15.29;60.32
48517;BME280;34310;51.904;4.256;2023-04-27T02:20:01;102136.88;;;15.29;60.21
48517;BME280;34310;51.904;4.256;2023-04-27T02:22:29;102141.97;;;15.27;60.21
48517;BME280;34310;51.904;4.256;2023-04-27T02:24:56;102138.44;;;15.27;60.16
48517;BME280;34310;51.904;4.256;2023-04-27T02:27:23;102139.34;;;15.27;60.30
48517;BME280;34310;51.904;4.256;2023-04-27T02:29:51;102132.25;;;15.25;60.41
48517;BME280;34310;51.904;4.256;2023-04-27T02:32:19;102139.13;;;15.24;60.26
48517;BME280;34310;51.904;4.256;2023-04-27T02:34:46;102135.63;;;15.24;60.21
48517;BME280;34310;51.904;4.256;2023-04-27T02:37:14;102136.44;;;15.23;60.27
48517;BME280;34310;51.904;4.256;2023-04-27T02:39:41;102135.53;;;15.22;60.22
48517;BME280;34310;51.904;4.256;2023-04-27T02:42:09;102133.72;;;15.21;60.44
48517;BME280;34310;51.904;4.256;2023-04-27T02:44:36;102132.81;;;15.21;60.29
48517;BME280;34310;51.904;4.256;2023-04-27T02:47:03;102136.22;;;15.19;60.55
48517;BME280;34310;51.904;4.256;2023-04-27T02:49:31;102137.00;;;15.18;60.49
48517;BME280;34310;51.904;4.256;2023-04-27T02:51:58;102141.31;;;15.18;60.41
48517;BME280;34310;51.904;4.256;2023-04-27T02:54:25;102142.09;;;15.17;60.64
48517;BME280;34310;51.904;4.256;2023-04-27T02:56:53;102136.88;;;15.17;60.79
48517;BME280;34310;51.904;4.256;2023-04-27T02:59:20;102142.09;;;15.17;60.75
48517;BME280;34310;51.904;4.256;2023-04-27T03:01:48;102141.19;;;15.16;60.57
48517;BME280;34310;51.904;4.256;2023-04-27T03:04:15;102142.09;;;15.17;60.51
48517;BME280;34310;51.904;4.256;2023-04-27T03:06:43;102144.69;;;15.17;60.44
48517;BME280;34310;51.904;4.256;2023-04-27T03:09:11;102154.31;;;15.18;60.51
48517;BME280;34310;51.904;4.256;2023-04-27T03:11:42;102143.00;;;15.17;60.55
48517;BME280;34310;51.904;4.256;2023-04-27T03:14:09;102153.41;;;15.17;60.49
48517;BME280;34310;51.904;4.256;2023-04-27T03:16:36;102156.13;;;15.19;60.33
48517;BME280;34310;51.904;4.256;2023-04-27T03:19:04;102153.41;;;15.17;60.47
48517;BME280;34310;51.904;4.256;2023-04-27T03:21:31;102153.41;;;15.17;60.32
48517;BME280;34310;51.904;4.256;2023-04-27T03:23:59;102144.69;;;15.17;60.42
48517;BME280;34310;51.904;4.256;2023-04-27T03:26:26;102152.50;;;15.17;60.23
48517;BME280;34310;51.904;4.256;2023-04-27T03:28:53;102156.00;;;15.17;60.30
48517;BME280;34310;51.904;4.256;2023-04-27T03:31:21;102156.13;;;15.19;60.41
48517;BME280;34310;51.904;4.256;2023-04-27T03:33:48;102149.22;;;15.19;60.45
48517;BME280;34310;51.904;4.256;2023-04-27T03:36:15;102152.63;;;15.18;60.26
48517;BME280;34310;51.904;4.256;2023-04-27T03:38:43;102151.81;;;15.19;60.22
48517;BME280;34310;51.904;4.256;2023-04-27T03:41:11;102161.31;;;15.19;60.34
48517;BME280;34310;51.904;4.256;2023-04-27T03:43:38;102157.81;;;15.18;60.32
48517;BME280;34310;51.904;4.256;2023-04-27T03:46:05;102154.31;;;15.18;60.38
48517;BME280;34310;51.904;4.256;2023-04-27T03:48:33;102157.03;;;15.19;60.29
48517;BME280;34310;51.904;4.256;2023-04-27T03:51:00;102161.31;;;15.19;60.48
48517;BME280;34310;51.904;4.256;2023-04-27T03:53:28;102161.31;;;15.19;60.38
48517;BME280;34310;51.904;4.256;2023-04-27T03:55:55;102170.03;;;15.19;60.28
48517;BME280;34310;51.904;4.256;2023-04-27T03:58:22;102171.72;;;15.19;60.37
48517;BME280;34310;51.904;4.256;2023-04-27T04:00:49;102176.03;;;15.18;60.29
48517;BME280;34310;51.904;4.256;2023-04-27T04:03:17;102176.94;;;15.19;60.39
48517;BME280;34310;51.904;4.256;2023-04-27T04:05:44;102181.22;;;15.18;60.34
48517;BME280;34310;51.904;4.256;2023-04-27T04:08:13;102174.22;;;15.17;60.50
48517;BME280;34310;51.904;4.256;2023-04-27T04:10:40;102177.72;;;15.18;60.42
48517;BME280;34310;51.904;4.256;2023-04-27T04:13:08;102175.00;;;15.16;60.36
48517;BME280;34310;51.904;4.256;2023-04-27T04:15:35;102178.50;;;15.17;60.36
48517;BME280;34310;51.904;4.256;2023-04-27T04:18:02;102169.81;;;15.16;60.39
48517;BME280;34310;51.904;4.256;2023-04-27T04:20:30;102176.72;;;15.16;60.40
48517;BME280;34310;51.904;4.256;2023-04-27T04:22:57;102176.72;;;15.16;60.40
48517;BME280;34310;51.904;4.256;2023-04-27T04:25:25;102180.22;;;15.16;60.32
48517;BME280;34310;51.904;4.256;2023-04-27T04:27:52;102185.31;;;15.15;60.34
48517;BME280;34310;51.904;4.256;2023-04-27T04:30:20;102184.41;;;15.14;60.31
48517;BME280;34310;51.904;4.256;2023-04-27T04:32:48;102179.19;;;15.14;60.29
48517;BME280;34310;51.904;4.256;2023-04-27T04:35:16;102179.19;;;15.14;60.45
48517;BME280;34310;51.904;4.256;2023-04-27T04:37:45;102183.50;;;15.14;60.44
48517;BME280;34310;51.904;4.256;2023-04-27T04:40:13;102189.50;;;15.13;60.30
48517;BME280;34310;51.904;4.256;2023-04-27T04:42:40;102192.88;;;15.12;60.44
48517;BME280;34310;51.904;4.256;2023-04-27T04:45:08;102197.19;;;15.11;60.40
48517;BME280;34310;51.904;4.256;2023-04-27T04:47:36;102197.19;;;15.11;60.46
48517;BME280;34310;51.904;4.256;2023-04-27T04:50:03;102201.47;;;15.11;60.51
48517;BME280;34310;51.904;4.256;2023-04-27T04:52:31;102192.78;;;15.10;60.32
48517;BME280;34310;51.904;4.256;2023-04-27T04:54:58;102198.88;;;15.11;60.40
48517;BME280;34310;51.904;4.256;2023-04-27T04:57:25;102200.47;;;15.09;60.46
48517;BME280;34310;51.904;4.256;2023-04-27T04:59:53;102204.09;;;15.11;60.37
48517;BME280;34310;51.904;4.256;2023-04-27T05:02:20;102197.88;;;15.09;60.51
48517;BME280;34310;51.904;4.256;2023-04-27T05:04:48;102216.88;;;15.08;60.54
48517;BME280;34310;51.904;4.256;2023-04-27T05:07:18;102204.75;;;15.08;60.39
48517;BME280;34310;51.904;4.256;2023-04-27T05:09:51;102205.56;;;15.07;60.44
48517;BME280;34310;51.904;4.256;2023-04-27T05:12:18;102219.47;;;15.08;60.33
48517;BME280;34310;51.904;4.256;2023-04-27T05:14:45;102208.16;;;15.07;60.44
48517;BME280;34310;51.904;4.256;2023-04-27T05:17:14;102210.75;;;15.07;60.46
48517;BME280;34310;51.904;4.256;2023-04-27T05:19:41;102222.06;;;15.08;60.56
48517;BME280;34310;51.904;4.256;2023-04-27T05:22:08;102218.44;;;15.06;60.55
48517;BME280;34310;51.904;4.256;2023-04-27T05:24:35;102213.25;;;15.06;60.60
48517;BME280;34310;51.904;4.256;2023-04-27T05:27:03;102214.94;;;15.05;60.76
48517;BME280;34310;51.904;4.256;2023-04-27T05:29:30;102214.94;;;15.05;60.80
48517;BME280;34310;51.904;4.256;2023-04-27T05:31:57;102215.06;;;15.07;60.84
48517;BME280;34310;51.904;4.256;2023-04-27T05:34:25;102219.47;;;15.08;60.66
48517;BME280;34310;51.904;4.256;2023-04-27T05:36:52;102218.44;;;15.06;60.59
48517;BME280;34310;51.904;4.256;2023-04-27T05:39:20;102208.94;;;15.06;60.51
48517;BME280;34310;51.904;4.256;2023-04-27T05:41:47;102217.66;;;15.07;60.68
48517;BME280;34310;51.904;4.256;2023-04-27T05:44:15;102222.06;;;15.08;60.67
48517;BME280;34310;51.904;4.256;2023-04-27T05:46:42;102220.25;;;15.07;60.58
48517;BME280;34310;51.904;4.256;2023-04-27T05:49:10;102219.47;;;15.08;60.59
48517;BME280;34310;51.904;4.256;2023-04-27T05:51:37;102229.09;;;15.09;60.59
48517;BME280;34310;51.904;4.256;2023-04-27T05:54:06;102231.69;;;15.09;60.62
48517;BME280;34310;51.904;4.256;2023-04-27T05:56:34;102229.97;;;15.09;60.57
48517;BME280;34310;51.904;4.256;2023-04-27T05:59:01;102233.50;;;15.10;60.51
48517;BME280;34310;51.904;4.256;2023-04-27T06:01:29;102232.59;;;15.09;60.44
48517;BME280;34310;51.904;4.256;2023-04-27T06:03:56;102225.69;;;15.10;60.55
48517;BME280;34310;51.904;4.256;2023-04-27T06:06:30;102235.31;;;15.11;60.49
48517;BME280;34310;51.904;4.256;2023-04-27T06:08:59;102235.31;;;15.11;60.61
48517;BME280;34310;51.904;4.256;2023-04-27T06:11:26;102234.50;;;15.12;60.66
48517;BME280;34310;51.904;4.256;2023-04-27T06:13:54;102231.91;;;15.12;60.60
48517;BME280;34310;51.904;4.256;2023-04-27T06:16:21;102229.41;;;15.13;60.47
48517;BME280;34310;51.904;4.256;2023-04-27T06:18:50;102224.09;;;15.12;60.58
48517;BME280;34310;51.904;4.256;2023-04-27T06:21:17;102228.50;;;15.13;60.64
48517;BME280;34310;51.904;4.256;2023-04-27T06:23:45;102233.72;;;15.13;60.47
48517;BME280;34310;51.904;4.256;2023-04-27T06:26:12;102228.50;;;15.13;60.63
48517;BME280;34310;51.904;4.256;2023-04-27T06:28:39;102228.50;;;15.13;60.45
48517;BME280;34310;51.904;4.256;2023-04-27T06:31:07;102219.91;;;15.14;60.51
48517;BME280;34310;51.904;4.256;2023-04-27T06:33:34;102230.31;;;15.14;60.52
48517;BME280;34310;51.904;4.256;2023-04-27T06:36:02;102213.00;;;15.14;60.62
48517;BME280;34310;51.904;4.256;2023-04-27T06:38:29;102210.41;;;15.14;60.61
48517;BME280;34310;51.904;4.256;2023-04-27T06:40:57;102216.41;;;15.13;60.70
48517;BME280;34310;51.904;4.256;2023-04-27T06:43:25;102226.81;;;15.13;60.61
48517;BME280;34310;51.904;4.256;2023-04-27T06:45:52;102214.81;;;15.15;60.63
48517;BME280;34310;51.904;4.256;2023-04-27T06:48:20;102220.94;;;15.16;60.68
48517;BME280;34310;51.904;4.256;2023-04-27T06:50:47;102216.53;;;15.15;60.60
48517;BME280;34310;51.904;4.256;2023-04-27T06:53:15;102215.63;;;15.14;60.57
48517;BME280;34310;51.904;4.256;2023-04-27T06:55:43;102216.63;;;15.16;60.69
48517;BME280;34310;51.904;4.256;2023-04-27T06:58:14;102221.84;;;15.16;60.76
48517;BME280;34310;51.904;4.256;2023-04-27T07:00:41;102211.31;;;15.15;60.61
48517;BME280;34310;51.904;4.256;2023-04-27T07:03:08;102218.34;;;15.16;60.62
48517;BME280;34310;51.904;4.256;2023-04-27T07:05:36;102215.72;;;15.16;60.71
48517;BME280;34310;51.904;4.256;2023-04-27T07:08:04;102219.13;;;15.15;60.71
48517;BME280;34310;51.904;4.256;2023-04-27T07:10:34;102227.03;;;15.16;60.74
48517;BME280;34310;51.904;4.256;2023-04-27T07:13:02;102222.75;;;15.17;60.69
48517;BME280;34310;51.904;4.256;2023-04-27T07:15:30;102218.34;;;15.16;60.61
48517;BME280;34310;51.904;4.256;2023-04-27T07:17:57;102214.94;;;15.17;60.76
48517;BME280;34310;51.904;4.256;2023-04-27T07:20:25;102201.94;;;15.17;60.60
48517;BME280;34310;51.904;4.256;2023-04-27T07:22:52;102215.84;;;15.17;60.69
48517;BME280;34310;51.904;4.256;2023-04-27T07:25:20;102214.03;;;15.16;60.58
48517;BME280;34310;51.904;4.256;2023-04-27T07:27:47;102215.03;;;15.18;60.75
48517;BME280;34310;51.904;4.256;2023-04-27T07:30:15;102225.47;;;15.18;60.79
48517;BME280;34310;51.904;4.256;2023-04-27T07:32:44;102220.25;;;15.18;60.63
48517;BME280;34310;51.904;4.256;2023-04-27T07:35:11;102223.75;;;15.19;60.59
48517;BME280;34310;51.904;4.256;2023-04-27T07:37:39;102221.16;;;15.19;60.71
48517;BME280;34310;51.904;4.256;2023-04-27T07:40:08;102215.94;;;15.19;60.63
48517;BME280;34310;51.904;4.256;2023-04-27T07:42:43;102211.66;;;15.19;60.67
48517;BME280;34310;51.904;4.256;2023-04-27T07:45:12;102209.84;;;15.18;60.65
48517;BME280;34310;51.904;4.256;2023-04-27T07:47:40;102218.56;;;15.19;60.77
48517;BME280;34310;51.904;4.256;2023-04-27T07:50:09;102222.06;;;15.19;60.57
48517;BME280;34310;51.904;4.256;2023-04-27T07:52:36;102222.06;;;15.19;60.78
48517;BME280;34310;51.904;4.256;2023-04-27T07:55:04;102213.34;;;15.19;60.53
48517;BME280;34310;51.904;4.256;2023-04-27T07:57:31;102214.25;;;15.19;60.66
48517;BME280;34310;51.904;4.256;2023-04-27T07:59:59;102212.56;;;15.20;60.73
48517;BME280;34310;51.904;4.256;2023-04-27T08:02:27;102205.53;;;15.19;60.63
48517;BME280;34310;51.904;4.256;2023-04-27T08:04:57;102202.16;;;15.20;60.65
48517;BME280;34310;51.904;4.256;2023-04-27T08:07:25;102199.56;;;15.20;60.54
48517;BME280;34310;51.904;4.256;2023-04-27T08:09:54;102195.25;;;15.21;60.55
48517;BME280;34310;51.904;4.256;2023-04-27T08:12:21;102208.25;;;15.21;60.74
48517;BME280;34310;51.904;4.256;2023-04-27T08:14:48;102213.47;;;15.21;60.63
48517;BME280;34310;51.904;4.256;2023-04-27T08:17:16;102209.16;;;15.21;60.64
48517;BME280;34310;51.904;4.256;2023-04-27T08:19:47;102216.97;;;15.21;60.62
48517;BME280;34310;51.904;4.256;2023-04-27T08:22:14;102203.06;;;15.21;60.73
48517;BME280;34310;51.904;4.256;2023-04-27T08:24:42;102204.75;;;15.20;60.77
48517;BME280;34310;51.904;4.256;2023-04-27T08:27:09;102197.84;;;15.21;60.57
48517;BME280;34310;51.904;4.256;2023-04-27T08:29:37;102208.38;;;15.22;60.68
48517;BME280;34310;51.904;4.256;2023-04-27T08:32:04;102204.88;;;15.22;60.71
48517;BME280;34310;51.904;4.256;2023-04-27T08:34:32;102203.16;;;15.22;60.58
48517;BME280;34310;51.904;4.256;2023-04-27T08:36:59;102201.34;;;15.21;60.69
48517;BME280;34310;51.904;4.256;2023-04-27T08:39:26;102197.06;;;15.22;60.71
48517;BME280;34310;51.904;4.256;2023-04-27T08:41:54;102193.66;;;15.23;60.66
48517;BME280;34310;51.904;4.256;2023-04-27T08:44:22;102187.56;;;15.22;60.62
48517;BME280;34310;51.904;4.256;2023-04-27T08:46:50;102184.97;;;15.22;60.61
48517;BME280;34310;51.904;4.256;2023-04-27T08:49:17;102189.38;;;15.23;60.77
48517;BME280;34310;51.904;4.256;2023-04-27T08:51:45;102194.56;;;15.23;60.79
48517;BME280;34310;51.904;4.256;2023-04-27T08:54:12;102191.19;;;15.24;60.65
48517;BME280;34310;51.904;4.256;2023-04-27T08:56:40;102188.56;;;15.24;60.74
48517;BME280;34310;51.904;4.256;2023-04-27T08:59:14;102191.19;;;15.24;60.65
48517;BME280;34310;51.904;4.256;2023-04-27T09:01:44;102184.28;;;15.25;60.76
48517;BME280;34310;51.904;4.256;2023-04-27T09:04:13;102183.38;;;15.24;60.61
48517;BME280;34310;51.904;4.256;2023-04-27T09:06:41;102180.88;;;15.26;60.58
48517;BME280;34310;51.904;4.256;2023-04-27T09:09:08;102183.47;;;15.26;60.68
48517;BME280;34310;51.904;4.256;2023-04-27T09:11:38;102182.56;;;15.25;60.60
48517;BME280;34310;51.904;4.256;2023-04-27T09:16:43;102185.28;;;15.27;60.60
48517;BME280;34310;51.904;4.256;2023-04-27T09:19:11;102190.50;;;15.27;60.66
48517;BME280;34310;51.904;4.256;2023-04-27T09:21:39;102185.41;;;15.28;60.71
48517;BME280;34310;51.904;4.256;2023-04-27T09:24:11;102197.50;;;15.28;60.61
48517;BME280;34310;51.904;4.256;2023-04-27T09:26:39;102195.00;;;15.29;60.57
48517;BME280;34310;51.904;4.256;2023-04-27T09:29:08;102196.72;;;15.29;60.75
48517;BME280;34310;51.904;4.256;2023-04-27T09:31:36;102195.00;;;15.29;60.60
48517;BME280;34310;51.904;4.256;2023-04-27T09:34:04;102188.09;;;15.30;60.71
48517;BME280;34310;51.904;4.256;2023-04-27T09:36:31;102191.50;;;15.29;60.64
48517;BME280;34310;51.904;4.256;2023-04-27T09:39:02;102188.09;;;15.30;60.68
48517;BME280;34310;51.904;4.256;2023-04-27T09:41:32;102186.41;;;15.30;60.72
48517;BME280;34310;51.904;4.256;2023-04-27T09:44:00;102195.13;;;15.31;60.69
48517;BME280;34310;51.904;4.256;2023-04-27T09:46:28;102194.22;;;15.30;60.77
48517;BME280;34310;51.904;4.256;2023-04-27T09:49:02;102191.63;;;15.30;60.70
48517;BME280;34310;51.904;4.256;2023-04-27T09:51:30;102189.13;;;15.32;60.65
48517;BME280;34310;51.904;4.256;2023-04-27T09:54:00;102192.63;;;15.32;60.74
48517;BME280;34310;51.904;4.256;2023-04-27T10:01:59;102191.88;;;15.33;60.75
48517;BME280;34310;51.904;4.256;2023-04-27T10:07:31;102186.66;;;15.33;60.65
48517;BME280;34310;51.904;4.256;2023-04-27T10:10:02;102184.06;;;15.33;60.58
48517;BME280;34310;51.904;4.256;2023-04-27T10:12:35;102175.47;;;15.34;60.73
48517;BME280;34310;51.904;4.256;2023-04-27T10:15:16;102170.25;;;15.34;60.72
48517;BME280;34310;51.904;4.256;2023-04-27T10:17:48;102179.75;;;15.34;60.73
48517;BME280;34310;51.904;4.256;2023-04-27T10:20:16;102172.06;;;15.35;60.66
48517;BME280;34310;51.904;4.256;2023-04-27T10:22:54;102164.25;;;15.35;60.78
48517;BME280;34310;51.904;4.256;2023-04-27T10:25:27;102172.97;;;15.36;60.71
48517;BME280;34310;51.904;4.256;2023-04-27T10:27:59;102167.75;;;15.36;60.79
48517;BME280;34310;51.904;4.256;2023-04-27T10:30:42;102159.16;;;15.37;60.90
48517;BME280;34310;51.904;4.256;2023-04-27T10:33:14;102163.47;;;15.36;60.72
48517;BME280;34310;51.904;4.256;2023-04-27T10:35:52;102160.97;;;15.38;60.86
48517;BME280;34310;51.904;4.256;2023-04-27T10:38:21;102155.78;;;15.38;60.89
48517;BME280;34310;51.904;4.256;2023-04-27T10:41:01;102156.66;;;15.38;60.75
48517;BME280;34310;51.904;4.256;2023-04-27T10:43:34;102157.56;;;15.39;60.68
48517;BME280;34310;51.904;4.256;2023-04-27T10:46:12;102155.88;;;15.39;60.67
48517;BME280;34310;51.904;4.256;2023-04-27T10:48:40;102155.09;;;15.40;60.73
48517;BME280;34310;51.904;4.256;2023-04-27T10:51:13;102156.00;;;15.41;60.90
48517;BME280;34310;51.904;4.256;2023-04-27T10:53:41;102150.78;;;15.41;60.75
48517;BME280;34310;51.904;4.256;2023-04-27T10:56:09;102158.69;;;15.42;60.82
48517;BME280;34310;51.904;4.256;2023-04-27T10:58:37;102149.19;;;15.43;60.91
48517;BME280;34310;51.904;4.256;2023-04-27T11:01:08;102138.78;;;15.43;60.80
48517;BME280;34310;51.904;4.256;2023-04-27T11:03:35;102146.59;;;15.43;60.82
48517;BME280;34310;51.904;4.256;2023-04-27T11:06:04;102145.00;;;15.45;60.76
48517;BME280;34310;51.904;4.256;2023-04-27T11:08:32;102143.28;;;15.45;60.76
48517;BME280;34310;51.904;4.256;2023-04-27T11:11:02;102142.50;;;15.46;60.85
48517;BME280;34310;51.904;4.256;2023-04-27T11:13:32;102133.00;;;15.47;60.94
48517;BME280;34310;51.904;4.256;2023-04-27T11:16:00;102134.81;;;15.48;61.04
48517;BME280;34310;51.904;4.256;2023-04-27T11:18:30;102139.22;;;15.49;60.99
48517;BME280;34310;51.904;4.256;2023-04-27T11:21:10;102137.50;;;15.49;61.06
48517;BME280;34310;51.904;4.256;2023-04-27T11:23:38;102129.69;;;15.49;60.88
48517;BME280;34310;51.904;4.256;2023-04-27T11:28:37;102114.19;;;15.51;61.00
48517;BME280;34310;51.904;4.256;2023-04-27T11:31:05;102113.41;;;15.52;61.03
48517;BME280;34310;51.904;4.256;2023-04-27T11:33:33;102107.41;;;15.53;60.89
48517;BME280;34310;51.904;4.256;2023-04-27T11:36:02;102124.81;;;15.54;61.00
48517;BME280;34310;51.904;4.256;2023-04-27T11:38:33;102111.81;;;15.54;61.03
48517;BME280;34310;51.904;4.256;2023-04-27T11:41:03;102117.13;;;15.56;61.16
48517;BME280;34310;51.904;4.256;2023-04-27T11:43:31;102113.72;;;15.57;60.91
48517;BME280;34310;51.904;4.256;2023-04-27T11:46:05;102099.00;;;15.57;60.94
48517;BME280;34310;51.904;4.256;2023-04-27T11:48:37;102097.44;;;15.59;61.14
48517;BME280;34310;51.904;4.256;2023-04-27T11:51:10;102102.66;;;15.59;60.97
48517;BME280;34310;51.904;4.256;2023-04-27T11:53:40;102107.06;;;15.60;60.98
48517;BME280;34310;51.904;4.256;2023-04-27T11:56:09;102106.31;;;15.61;60.92
48517;BME280;34310;51.904;4.256;2023-04-27T11:58:38;102101.09;;;15.61;61.01
48517;BME280;34310;51.904;4.256;2023-04-27T12:01:07;102095.19;;;15.64;60.99
48517;BME280;34310;51.904;4.256;2023-04-27T12:03:34;102097.00;;;15.65;61.04
48517;BME280;34310;51.904;4.256;2023-04-27T12:06:02;102091.78;;;15.65;61.24
48517;BME280;34310;51.904;4.256;2023-04-27T12:08:50;102104.00;;;15.66;61.10
48517;BME280;34310;51.904;4.256;2023-04-27T12:11:17;102099.81;;;15.68;61.21
48517;BME280;34310;51.904;4.256;2023-04-27T12:13:45;102097.31;;;15.69;61.16
48517;BME280;34310;51.904;4.256;2023-04-27T12:16:13;102087.81;;;15.70;61.05
48517;BME280;34310;51.904;4.256;2023-04-27T12:18:40;102091.31;;;15.70;61.20
48517;BME280;34310;51.904;4.256;2023-04-27T12:21:08;102089.72;;;15.72;61.02
48517;BME280;34310;51.904;4.256;2023-04-27T12:23:36;102088.00;;;15.73;61.21
48517;BME280;34310;51.904;4.256;2023-04-27T12:26:03;102092.44;;;15.74;61.11
48517;BME280;34310;51.904;4.256;2023-04-27T12:28:31;102088.22;;;15.76;61.21
48517;BME280;34310;51.904;4.256;2023-04-27T12:30:58;102089.13;;;15.76;61.03
48517;BME280;34310;51.904;4.256;2023-04-27T12:33:25;102088.34;;;15.77;61.04
48517;BME280;34310;51.904;4.256;2023-04-27T12:35:53;102082.31;;;15.78;61.17
48517;BME280;34310;51.904;4.256;2023-04-27T12:38:20;102071.13;;;15.79;61.17
48517;BME280;34310;51.904;4.256;2023-04-27T12:40:48;102076.41;;;15.81;61.16
48517;BME280;34310;51.904;4.256;2023-04-27T12:43:16;102074.72;;;15.82;61.23
48517;BME280;34310;51.904;4.256;2023-04-27T12:45:43;102069.63;;;15.83;61.18
48517;BME280;34310;51.904;4.256;2023-04-27T12:48:11;102063.59;;;15.84;61.19
48517;BME280;34310;51.904;4.256;2023-04-27T12:50:38;102058.41;;;15.84;61.17
48517;BME280;34310;51.904;4.256;2023-04-27T12:53:06;102064.63;;;15.86;61.21
48517;BME280;34310;51.904;4.256;2023-04-27T12:55:33;102059.41;;;15.86;61.20
48517;BME280;34310;51.904;4.256;2023-04-27T12:58:01;102056.09;;;15.89;61.18
48517;BME280;34310;51.904;4.256;2023-04-27T13:00:30;102054.41;;;15.89;60.90
48517;BME280;34310;51.904;4.256;2023-04-27T13:02:58;102051.03;;;15.90;61.17
48517;BME280;34310;51.904;4.256;2023-04-27T13:05:25;102050.25;;;15.91;61.10
48517;BME280;34310;51.904;4.256;2023-04-27T13:07:55;102042.53;;;15.93;61.25
48517;BME280;34310;51.904;4.256;2023-04-27T13:10:22;102032.22;;;15.94;61.21